Time;durP1;ratioP1;P1;durP2;ratioP2;P2;SDS_P1;SDS_P2;PMS_P1;PMS_P2;Temp;Humidity;BMP_temperature;BMP_pressure;BME280_temperature;BME280_humidity;BME280_pressure;Samples;Min_cycle;Max_cycle;Signal;HPM_P1;HPM_P2
2020/12/28 10:02:18;;;;;;;11.30;9.97;;;;;;;2.15;94.21;95570.13;5211360;27;20534;-82
2020/12/28 10:04:46;;;;;;;10.40;9.20;;;;;;;2.58;95.30;95558.75;5175063;27;40242;-84
2020/12/28 10:07:13;;;;;;;10.57;9.47;;;;;;;3.15;93.50;95582.59;5255177;22;40553;-88
2020/12/28 10:09:40;;;;;;;12.50;8.70;;;;;;;3.53;90.76;95583.69;5119896;27;44324;-84
2020/12/28 10:12:07;;;;;;;9.00;8.10;;;;;;;3.74;88.62;95576.59;5114763;27;43665;-84
2020/12/28 10:14:34;;;;;;;9.83;8.80;;;;;;;4.02;86.76;95582.84;5111458;27;40108;-84
2020/12/28 10:17:01;;;;;;;10.73;8.83;;;;;;;4.18;85.47;95577.06;5115348;27;41348;-81
2020/12/28 10:19:29;;;;;;;9.07;7.87;;;;;;;4.34;84.36;95566.84;5220615;22;43136;-84
2020/12/28 10:21:59;;;;;;;8.80;7.90;;;;;;;4.41;83.78;95554.88;5149170;27;42707;-82
2020/12/28 10:24:27;;;;;;;10.03;8.17;;;;;;;4.57;82.73;95567.41;5149462;27;39996;-84
2020/12/28 10:26:54;;;;;;;8.67;7.73;;;;;;;4.59;82.59;95555.81;5150310;27;41738;-81
2020/12/28 10:29:21;;;;;;;9.63;8.17;;;;;;;4.65;81.06;95563.13;5150414;27;42996;-81
2020/12/28 10:31:48;;;;;;;8.73;7.60;;;;;;;4.75;81.26;95565.72;5216371;22;42562;-81
2020/12/28 10:34:15;;;;;;;9.93;8.83;;;;;;;4.84;80.98;95564.88;5111754;27;42162;-82
2020/12/28 10:36:45;;;;;;;19.23;14.13;;;;;;;4.80;80.49;95541.72;5112017;27;43963;-82
2020/12/28 10:39:12;;;;;;;12.60;10.53;;;;;;;5.00;80.02;95553.81;5123521;27;42567;-81
2020/12/28 10:41:40;;;;;;;9.37;8.33;;;;;;;4.98;79.48;95546.06;5236990;22;43102;-84
2020/12/28 10:44:07;;;;;;;10.77;7.97;;;;;;;5.00;79.54;95532.81;5125591;27;40103;-87
2020/12/28 10:46:36;;;;;;;9.37;7.60;;;;;;;5.11;79.52;95540.50;5111433;27;41948;-79
2020/12/28 10:49:03;;;;;;;8.97;7.13;;;;;;;5.21;79.38;95527.34;5108797;28;43739;-85
2020/12/28 10:51:31;;;;;;;8.10;7.13;;;;;;;5.23;79.63;95515.75;5094019;28;42606;-80
2020/12/28 10:53:58;;;;;;;9.33;7.53;;;;;;;5.38;79.31;95516.94;5218136;22;39437;-83
2020/12/28 10:56:27;;;;;;;8.33;7.13;;;;;;;5.47;79.35;95517.03;5128175;27;41958;-84
2020/12/28 10:58:55;;;;;;;9.37;7.30;;;;;;;5.56;78.95;95514.38;5111381;27;45384;-83
2020/12/28 11:01:22;;;;;;;8.00;6.93;;;;;;;5.50;78.58;95503.63;5126575;27;42854;-87
2020/12/28 11:03:51;;;;;;;7.47;6.63;;;;;;;5.57;78.76;95510.75;5127665;27;39754;-85
2020/12/28 11:06:18;;;;;;;7.23;6.20;;;;;;;5.55;78.62;95511.88;5234841;22;42315;-82
2020/12/28 11:08:45;;;;;;;6.73;6.03;;;;;;;5.55;78.68;95506.63;5144235;27;42872;-86
2020/12/28 11:11:16;;;;;;;8.03;6.50;;;;;;;5.56;78.95;95500.41;5144640;27;41874;-82
2020/12/28 11:13:43;;;;;;;7.30;6.37;;;;;;;5.53;79.00;95490.22;5131095;27;39640;-80
2020/12/28 11:18:46;;;;;;;8.90;6.90;;;;;;;5.40;77.89;95483.50;5051017;28;43111;-87
2020/12/28 11:21:13;;;;;;;8.43;6.90;;;;;;;5.41;78.56;95477.28;5053033;28;44192;-87
2020/12/28 11:23:59;;;;;;;8.70;7.10;;;;;;;5.44;78.16;95472.72;5052684;28;40559;-83
2020/12/28 11:26:27;;;;;;;8.07;6.30;;;;;;;5.43;78.10;95465.81;5070911;28;44231;-84
2020/12/28 11:28:54;;;;;;;8.47;6.23;;;;;;;5.58;77.76;95474.81;5181932;22;43762;-86
2020/12/28 11:31:22;;;;;;;8.17;6.50;;;;;;;5.52;76.96;95454.44;5084864;28;42264;-84
2020/12/28 11:33:49;;;;;;;7.57;6.30;;;;;;;5.67;77.39;95466.09;5097109;28;39791;-85
2020/12/28 11:36:17;;;;;;;9.77;7.00;;;;;;;5.73;77.54;95462.84;5096085;28;41720;-90
2020/12/28 11:38:45;;;;;;;7.20;6.30;;;;;;;5.76;77.38;95462.56;5096820;28;43299;-81
2020/12/28 11:41:13;;;;;;;6.77;6.03;;;;;;;5.74;77.15;95454.00;5176062;22;43830;-83
2020/12/28 11:43:41;;;;;;;8.33;6.83;;;;;;;5.73;76.46;95468.94;5076847;28;41097;-82
2020/12/28 11:46:10;;;;;;;9.53;6.70;;;;;;;5.82;77.25;95469.81;5109280;28;41518;-84
2020/12/28 11:48:39;;;;;;;7.33;5.57;;;;;;;5.81;77.19;95470.00;5093890;28;43784;-83
2020/12/28 11:51:16;;;;;;;7.60;6.60;;;;;;;5.60;77.54;95446.63;5121880;22;42222;31
2020/12/28 11:53:43;;;;;;;7.83;6.23;;;;;;;5.74;77.65;95480.25;5056885;28;41768;-79
2020/12/28 11:56:12;;;;;;;8.17;6.83;;;;;;;5.67;77.85;95468.72;5041656;28;42712;-80
2020/12/28 11:58:43;;;;;;;8.10;6.43;;;;;;;5.66;77.40;95462.63;5027947;28;42803;-86
2020/12/28 12:01:15;;;;;;;8.17;6.37;;;;;;;5.58;77.69;95451.22;5044282;28;44399;-82
2020/12/28 12:03:44;;;;;;;8.87;6.17;;;;;;;5.69;77.53;95458.88;5152898;22;40888;-87
2020/12/28 12:06:15;;;;;;;8.80;6.27;;;;;;;5.63;77.74;95443.72;5064384;28;41555;-83
2020/12/28 12:09:09;;;;;;;10.50;7.00;;;;;;;5.76;78.08;95452.06;5051422;28;44159;-85
2020/12/28 12:11:30;;;;;;;8.33;6.90;;;;;;;5.66;77.68;95438.19;5052547;28;43397;-86
2020/12/28 12:13:58;;;;;;;8.70;7.67;;;;;;;5.67;77.37;95453.78;5053255;28;42062;-89
2020/12/28 12:16:26;;;;;;;11.20;7.20;;;;;;;5.60;77.34;95447.47;5165465;22;42945;-79
2020/12/28 12:18:53;;;;;;;10.27;7.07;;;;;;;5.54;76.87;95452.50;5082869;28;43845;-86
2020/12/28 12:21:20;;;;;;;10.37;6.90;;;;;;;5.36;76.76;95445.41;5079974;28;42467;-86
2020/12/28 12:23:47;;;;;;;7.87;6.63;;;;;;;5.39;77.28;95450.38;5095175;28;40998;-79
2020/12/28 12:26:18;;;;;;;9.37;6.70;;;;;;;5.36;77.72;95440.16;5190353;22;41854;-85
2020/12/28 12:28:45;;;;;;;8.93;6.80;;;;;;;5.31;77.50;95437.19;5160743;22;42971;-82
2020/12/28 12:31:14;;;;;;;7.27;6.50;;;;;;;5.25;77.66;95431.69;5110797;27;43006;-80
2020/12/28 12:33:42;;;;;;;9.57;6.83;;;;;;;5.27;77.32;95435.00;5093566;28;40256;-78
2020/12/28 12:36:10;;;;;;;9.20;6.97;;;;;;;5.28;77.83;95432.22;5110604;28;42794;-83
2020/12/28 12:38:37;;;;;;;10.83;6.87;;;;;;;5.24;77.90;95428.22;5180755;22;44953;-85
2020/12/28 12:41:04;;;;;;;7.93;6.03;;;;;;;5.27;77.72;95425.31;5072624;28;42413;-82
2020/12/28 12:43:31;;;;;;;7.83;5.60;;;;;;;5.32;78.07;95424.84;5073537;28;39726;-80
2020/12/28 12:45:59;;;;;;;7.60;6.43;;;;;;;5.31;77.73;95418.81;5098314;28;41298;-81
2020/12/28 12:48:27;;;;;;;8.67;6.60;;;;;;;5.40;77.84;95424.97;5086234;28;44292;-82
2020/12/28 12:50:54;;;;;;;14.20;10.17;;;;;;;5.38;77.61;95414.63;5184729;22;42998;-86
2020/12/28 12:53:21;;;;;;;14.37;10.07;;;;;;;5.32;77.45;95417.81;5090901;28;39758;-83
2020/12/28 12:55:48;;;;;;;8.87;7.23;;;;;;;5.50;77.80;95436.22;5073141;28;42822;-82
2020/12/28 12:58:15;;;;;;;8.20;7.03;;;;;;;5.54;77.51;95436.75;5073087;28;43515;-85
2020/12/28 13:00:42;;;;;;;10.30;6.40;;;;;;;5.51;77.47;95423.94;5071528;28;43676;-85
2020/12/28 13:03:10;;;;;;;8.03;6.23;;;;;;;5.51;77.41;95424.75;5194788;22;41381;-83
2020/12/28 13:05:37;;;;;;;7.67;6.40;;;;;;;5.63;77.09;95436.69;5087148;27;42029;-82
2020/12/28 13:08:05;;;;;;;7.23;6.17;;;;;;;5.68;77.25;95423.13;5100860;28;42734;-81
2020/12/28 13:10:32;;;;;;;8.03;6.83;;;;;;;5.65;77.08;95418.16;5076666;28;43696;-81
2020/12/28 13:12:59;;;;;;;7.10;6.40;;;;;;;5.67;76.69;95427.53;5092781;28;39831;-82
2020/12/28 13:15:26;;;;;;;8.70;6.67;;;;;;;5.65;76.88;95442.59;5197422;22;41240;-83
2020/12/28 13:17:54;;;;;;;7.17;6.43;;;;;;;5.65;76.64;95444.41;5092637;28;43384;-83
2020/12/28 13:20:23;;;;;;;9.90;7.33;;;;;;;5.63;76.36;95436.69;5111077;27;42975;-87
2020/12/28 13:22:51;;;;;;;8.57;7.23;;;;;;;5.55;76.28;95449.72;5109816;28;40395;-84
2020/12/28 13:25:19;;;;;;;9.27;7.40;;;;;;;5.38;76.30;95432.97;5177989;22;42467;-82
2020/12/28 13:27:47;;;;;;;9.70;6.97;;;;;;;5.43;76.48;95431.72;5071897;28;42623;-85
2020/12/28 13:30:14;;;;;;;9.17;7.07;;;;;;;5.41;76.48;95427.44;5055760;28;43522;-83
2020/12/28 13:32:42;;;;;;;8.97;7.70;;;;;;;5.39;76.68;95418.91;5071457;28;40199;-87
2020/12/28 13:35:09;;;;;;;7.87;6.70;;;;;;;5.34;76.63;95401.94;5072392;28;44050;-85
2020/12/28 13:37:36;;;;;;;9.50;7.27;;;;;;;5.41;76.75;95401.22;5179614;22;44536;-84
2020/12/28 13:40:04;;;;;;;8.57;7.17;;;;;;;5.50;76.74;95403.91;5113443;27;42557;-87
2020/12/28 13:42:33;;;;;;;8.07;7.27;;;;;;;5.49;76.57;95402.25;5096705;27;40122;-86
2020/12/28 13:45:00;;;;;;;8.33;7.43;;;;;;;5.53;76.46;95403.63;5112338;27;43300;-87
2020/12/28 13:47:27;;;;;;;7.70;6.67;;;;;;;5.55;76.53;95417.41;5113457;27;44035;-83
2020/12/28 13:49:54;;;;;;;8.97;7.37;;;;;;;5.53;76.55;95414.09;5201491;22;43129;-85
2020/12/28 13:52:21;;;;;;;8.33;7.10;;;;;;;5.45;76.47;95411.38;5109691;28;40049;-83
2020/12/28 13:54:48;;;;;;;8.97;7.57;;;;;;;5.51;76.61;95424.75;5091404;28;41753;-87
2020/12/28 13:57:16;;;;;;;7.73;6.93;;;;;;;5.49;76.55;95418.00;5092365;28;44163;-80
2020/12/28 14:02:27;;;;;;;8.60;7.70;;;;;;;5.59;76.87;95435.31;5089279;28;20715;-81
2020/12/28 14:04:54;;;;;;;9.37;8.20;;;;;;;5.58;76.77;95432.84;5088218;28;43127;-83
2020/12/28 14:07:21;;;;;;;11.73;8.67;;;;;;;5.45;76.82;95416.63;5071810;28;44055;-82
2020/12/28 14:09:48;;;;;;;10.20;8.30;;;;;;;5.53;76.67;95437.72;5055523;28;44165;-86
2020/12/28 14:12:17;;;;;;;11.57;8.70;;;;;;;5.54;76.99;95436.75;5167115;22;41019;-82
2020/12/28 14:14:45;;;;;;;8.87;7.97;;;;;;;5.45;76.39;95421.88;5087912;28;41653;-82
2020/12/28 14:17:13;;;;;;;11.33;8.93;;;;;;;5.55;76.45;95448.91;5072383;28;43444;-84
2020/12/28 14:19:40;;;;;;;11.00;9.50;;;;;;;5.47;76.66;95425.19;5089936;28;42531;-81
